Webcam Flughafen St.Gallen-Altenrhein

Live-Bilder und Zeitraffer LSZR / ACH.

 

Live aus Altenrhein
LIVE
LSZR 271450Z 30006KT 3000 -SN SCT003 BKN022 01/01 Q0997 NOSIG RMK N
Zeitraffer heute
2020-02-27 00:15:00
LSZR 262250Z AUTO 26010KT 220V290 9999 SCT029 SCT032 BKN038 02/M02 Q1011 RESN